Sign in

Goboko App

Advertising

Info

Aviation weather - KDAB

METAR KDAB 270353Z 06004KT 10SM CLR 16/11 A3024 RMK AO2 SLP239 T01560111 $

TAF KDAB 262340Z 2700/2724 02007KT P6SM SKC FM271500 11011KT P6SM SCT035

Aviation weather from ADDS. Re-check weather before flight.

-